Terminal Aerodrome Forecast
Issued by NWS

Home | Current Version | Previous Version | Text Only | Print | Product List | Glossary On
Versions: 1 2 3 4 5 6 7 8 9 10 11 12 13 14 15 16 17 18 19 20 21 22 23 24 25 26 27 28 29 30 31 32 33 34 35 36 37 38
000
FTUS44 KHGX 251123
TAFCXO
TAF
KCXO 251123Z 2512/2612 00000KT P6SM SCT150 OVC220
     FM251600 19008KT P6SM SCT025 BKN250
     FM252100 17010KT P6SM FEW040 BKN180
     FM260300 16005KT P6SM SCT025 BKN180=

USA.gov is the U.S. government's official web portal to all federal, state and local government web resources and services.